createdAt,value
2019-02-15T00:02:28.085Z,98075.73
2019-02-15T00:04:56.507Z,98073.33
2019-02-15T00:07:24.929Z,98063.96
2019-02-15T00:09:53.324Z,98066.73
2019-02-15T00:12:21.737Z,98068.22
2019-02-15T00:14:50.330Z,98071.73
2019-02-15T00:17:20.378Z,98074.83
2019-02-15T00:19:50.413Z,98075.30
2019-02-15T00:22:18.997Z,98074.83
2019-02-15T00:24:47.399Z,98075.12
2019-02-15T00:27:15.797Z,98081.91
2019-02-15T00:29:44.337Z,98073.27
2019-02-15T00:32:12.730Z,98075.59
2019-02-15T00:34:41.142Z,98075.30
2019-02-15T00:37:09.721Z,98077.77
2019-02-15T00:39:38.117Z,98076.78
2019-02-15T00:42:06.511Z,98069.84
2019-02-15T00:44:35.141Z,98068.54
2019-02-15T00:47:23.455Z,98061.23
2019-02-15T00:49:53.797Z,98066.72
2019-02-15T00:52:26.529Z,98069.41
2019-02-15T00:54:56.757Z,98059.34
2019-02-15T00:57:36.066Z,98064.03
2019-02-15T01:00:10.310Z,98063.55
2019-02-15T01:02:46.207Z,98063.09
2019-02-15T01:05:16.312Z,98056.00
2019-02-15T01:07:49.020Z,98056.00
2019-02-15T01:10:24.929Z,98061.41
2019-02-15T01:12:57.441Z,98054.26
2019-02-15T01:15:25.855Z,98050.87
2019-02-15T01:17:54.301Z,98052.73
2019-02-15T01:20:22.697Z,98052.33
2019-02-15T01:22:51.097Z,98045.03
2019-02-15T01:25:19.592Z,98047.10
2019-02-15T01:27:49.630Z,98043.80
2019-02-15T01:30:36.150Z,98044.80
2019-02-15T01:33:06.189Z,98048.44
2019-02-15T01:35:38.905Z,98031.98
2019-02-15T01:38:14.464Z,98035.36
2019-02-15T01:40:53.246Z,98036.97
2019-02-15T01:43:29.076Z,98038.27
2019-02-15T01:45:59.126Z,98035.30
2019-02-15T01:48:27.520Z,98036.81
2019-02-15T01:50:56.149Z,98043.52
2019-02-15T01:53:24.555Z,98041.52
2019-02-15T01:55:52.942Z,98032.30
2019-02-15T01:58:21.692Z,98037.30
2019-02-15T02:00:50.154Z,98033.62
2019-02-15T02:03:18.552Z,98030.68
2019-02-15T02:05:47.182Z,98034.77
2019-02-15T02:08:17.347Z,98034.37
2019-02-15T02:10:45.886Z,98039.23
2019-02-15T02:13:14.348Z,98034.37
2019-02-15T02:15:42.754Z,98029.61
2019-02-15T02:18:11.154Z,98039.59
2019-02-15T02:20:39.576Z,98036.52
2019-02-15T02:23:08.021Z,98031.39
2019-02-15T02:25:36.584Z,98036.83
2019-02-15T02:28:05.201Z,98031.23
2019-02-15T02:30:33.607Z,98033.74
2019-02-15T02:33:02.077Z,98032.98
2019-02-15T02:35:30.668Z,98032.20
2019-02-15T02:37:59.067Z,98033.36
2019-02-15T02:40:27.473Z,98031.21
2019-02-15T02:42:55.896Z,98030.74
2019-02-15T02:45:24.345Z,98024.68
2019-02-15T02:47:52.778Z,98028.23
2019-02-15T02:50:21.315Z,98025.83
2019-02-15T02:52:49.782Z,98026.00
2019-02-15T02:55:18.178Z,98027.74
2019-02-15T02:57:46.772Z,98027.74
2019-02-15T03:00:15.238Z,98023.69
2019-02-15T03:02:43.738Z,98022.23
2019-02-15T03:05:12.201Z,98022.77
2019-02-15T03:07:40.596Z,98028.35
2019-02-15T03:10:09.132Z,98028.35
2019-02-15T03:12:37.588Z,98023.27
2019-02-15T03:15:07.194Z,98029.02
2019-02-15T03:17:35.597Z,98026.05
2019-02-15T03:20:04.936Z,98015.44
2019-02-15T03:22:33.330Z,98016.88
2019-02-15T03:25:01.778Z,98006.53
2019-02-15T03:27:30.400Z,98015.91
2019-02-15T03:29:58.799Z,98018.19
2019-02-15T03:32:27.305Z,98021.42
2019-02-15T03:34:55.722Z,98018.81
2019-02-15T03:37:41.922Z,98021.49
2019-02-15T03:40:12.081Z,98017.24
2019-02-15T03:42:40.476Z,98016.58
2019-02-15T03:45:09.513Z,98013.56
2019-02-15T03:47:38.297Z,98011.78
2019-02-15T03:50:08.628Z,98024.30
2019-02-15T03:52:37.022Z,98019.84
2019-02-15T03:55:06.694Z,98017.54
2019-02-15T03:57:35.154Z,98010.95
2019-02-15T04:00:04.560Z,98009.64
2019-02-15T04:02:33.180Z,98018.18
2019-02-15T04:05:01.589Z,98013.73
2019-02-15T04:07:30.096Z,98010.19
2019-02-15T04:09:58.890Z,98017.17
2019-02-15T04:12:27.288Z,98011.25
2019-02-15T04:14:55.703Z,98018.48
2019-02-15T04:17:24.149Z,98015.09
2019-02-15T04:19:52.540Z,98016.66
2019-02-15T04:22:20.940Z,98011.55
2019-02-15T04:24:49.489Z,98014.52
2019-02-15T04:27:17.884Z,98010.61
2019-02-15T04:29:46.288Z,98018.50
2019-02-15T04:32:14.845Z,98017.73
2019-02-15T04:34:43.238Z,98021.22
2019-02-15T04:37:11.645Z,98015.06
2019-02-15T04:39:40.128Z,98014.99
2019-02-15T04:42:08.544Z,98017.30
2019-02-15T04:44:42.752Z,98016.06
2019-02-15T04:47:07.087Z,98010.73
2019-02-15T04:49:35.499Z,98017.02
2019-02-15T04:52:03.909Z,98014.34
2019-02-15T04:54:32.342Z,98010.43
2019-02-15T04:57:00.733Z,98006.45
2019-02-15T04:59:29.133Z,98002.06
2019-02-15T05:01:57.749Z,97998.63
2019-02-15T05:04:26.133Z,97993.00
2019-02-15T05:06:54.528Z,97993.00
2019-02-15T05:09:24.053Z,97991.77
2019-02-15T05:11:52.547Z,97990.99
2019-02-15T05:14:20.940Z,97994.53
2019-02-15T05:16:49.543Z,97982.27
2019-02-15T05:19:17.934Z,97980.89
2019-02-15T05:21:46.458Z,97982.56
2019-02-15T05:24:14.992Z,97977.34
2019-02-15T05:26:43.380Z,97966.01
2019-02-15T05:29:11.775Z,97973.20
2019-02-15T05:31:40.539Z,97971.83
2019-02-15T05:34:09.103Z,97965.24
2019-02-15T05:36:37.500Z,97969.99
2019-02-15T05:39:08.700Z,97966.84
2019-02-15T05:41:37.091Z,97964.11
2019-02-15T05:44:05.484Z,97967.55
2019-02-15T05:46:34.088Z,97968.39
2019-02-15T05:49:04.040Z,97968.79
2019-02-15T05:51:32.346Z,97971.40
2019-02-15T05:54:01.188Z,97967.88
2019-02-15T05:56:29.544Z,97960.89
2019-02-15T05:58:57.941Z,97967.42
2019-02-15T06:01:27.668Z,97976.15
2019-02-15T06:03:56.090Z,97970.62
2019-02-15T06:06:24.495Z,97961.09
2019-02-15T06:08:52.956Z,97959.95
2019-02-15T06:11:21.345Z,97968.32
2019-02-15T06:13:49.747Z,97968.85
2019-02-15T06:16:18.318Z,97968.38
2019-02-15T06:18:46.703Z,97973.67
2019-02-15T06:21:15.090Z,97968.45
2019-02-15T06:23:43.865Z,97973.61
2019-02-15T06:26:12.247Z,97964.94
2019-02-15T06:28:40.661Z,97968.38
2019-02-15T06:31:09.156Z,97966.02
2019-02-15T06:33:37.923Z,97970.09
2019-02-15T06:36:06.387Z,97968.55
2019-02-15T06:38:35.292Z,97969.66
2019-02-15T06:41:03.745Z,97966.05
2019-02-15T06:43:32.137Z,97963.30
2019-02-15T06:46:02.231Z,97962.30
2019-02-15T06:48:30.696Z,97965.53
2019-02-15T06:50:59.092Z,97957.77
2019-02-15T06:53:27.674Z,97959.00
2019-02-15T06:55:56.071Z,97966.98
2019-02-15T06:58:24.477Z,97970.16
2019-02-15T07:01:10.830Z,97969.38
2019-02-15T07:03:40.865Z,97970.77
2019-02-15T07:06:11.437Z,97965.70
2019-02-15T07:08:39.885Z,97970.38
2019-02-15T07:11:08.288Z,97972.89
2019-02-15T07:13:36.688Z,97984.20
2019-02-15T07:16:05.260Z,97995.63
2019-02-15T07:18:33.708Z,97997.88
2019-02-15T07:21:02.053Z,97995.97
2019-02-15T07:23:30.472Z,97990.81
2019-02-15T07:25:58.940Z,97990.56
2019-02-15T07:28:27.348Z,97986.11
2019-02-15T07:30:55.997Z,97994.97
2019-02-15T07:33:24.400Z,97986.11
2019-02-15T07:35:52.799Z,97984.27
2019-02-15T07:38:21.246Z,97986.70
2019-02-15T07:40:49.652Z,97985.33
2019-02-15T07:43:18.055Z,97979.88
2019-02-15T07:45:46.503Z,97983.48
2019-02-15T07:48:14.907Z,97981.77
2019-02-15T07:50:43.307Z,97978.36
2019-02-15T07:53:11.737Z,97983.27
2019-02-15T07:55:40.151Z,97982.56
2019-02-15T07:58:08.550Z,97977.77
2019-02-15T08:00:37.011Z,97978.52
2019-02-15T08:03:05.410Z,97980.09
2019-02-15T08:05:33.965Z,97981.35
2019-02-15T08:08:02.420Z,97975.23
2019-02-15T08:10:30.813Z,97976.23
2019-02-15T08:12:59.209Z,97977.19
2019-02-15T08:15:35.861Z,97976.64
2019-02-15T08:17:57.945Z,97982.55
2019-02-15T08:20:26.351Z,97984.55
2019-02-15T08:22:54.811Z,97981.82
2019-02-15T08:25:23.209Z,97982.98
2019-02-15T08:27:51.621Z,97985.16
2019-02-15T08:30:22.033Z,97993.22
2019-02-15T08:32:50.237Z,97993.89
2019-02-15T08:35:18.638Z,98001.00
2019-02-15T08:37:47.147Z,97995.05
2019-02-15T08:40:15.537Z,97997.78
2019-02-15T08:42:46.003Z,98003.61
2019-02-15T08:45:14.430Z,97993.71
2019-02-15T08:47:42.882Z,97999.92
2019-02-15T08:50:12.211Z,98001.16
2019-02-15T08:52:40.777Z,97997.80
2019-02-15T08:55:11.008Z,98002.50
2019-02-15T08:57:39.411Z,97992.10
2019-02-15T09:00:13.092Z,97983.41
2019-02-15T09:02:41.497Z,97992.56
2019-02-15T09:05:13.203Z,97992.84
2019-02-15T09:07:41.885Z,97990.70
2019-02-15T09:10:12.327Z,97990.67
2019-02-15T09:12:40.739Z,97998.93
2019-02-15T09:15:12.351Z,97998.89
2019-02-15T09:17:40.817Z,97998.50
2019-02-15T09:20:11.260Z,97998.32
2019-02-15T09:22:39.907Z,98006.55
2019-02-15T09:25:10.351Z,98004.48
2019-02-15T09:27:43.169Z,98003.60
2019-02-15T09:30:13.900Z,98002.21
2019-02-15T09:32:42.307Z,97995.02
2019-02-15T09:35:12.149Z,97998.47
2019-02-15T09:37:40.643Z,97997.20
2019-02-15T09:40:10.450Z,98002.86
2019-02-15T09:42:38.923Z,97995.45
2019-02-15T09:45:11.948Z,97997.86
2019-02-15T09:47:40.353Z,97996.95
2019-02-15T09:50:11.993Z,98000.28
2019-02-15T09:52:40.227Z,97996.49
2019-02-15T09:55:08.800Z,97998.80
2019-02-15T09:57:37.203Z,97995.03
2019-02-15T10:00:08.549Z,98000.33
2019-02-15T10:02:36.943Z,98000.18
2019-02-15T10:05:06.988Z,98001.70
2019-02-15T10:07:35.467Z,98001.80
2019-02-15T10:10:04.736Z,98004.87
2019-02-15T10:12:33.130Z,98001.80
2019-02-15T10:15:01.558Z,98000.63
2019-02-15T10:17:30.038Z,98005.36
2019-02-15T10:19:58.435Z,97999.09
2019-02-15T10:22:26.867Z,97993.69
2019-02-15T10:24:55.263Z,97996.64
2019-02-15T10:27:23.672Z,97993.31
2019-02-15T10:29:52.273Z,97990.40
2019-02-15T10:32:20.728Z,97989.35
2019-02-15T10:34:49.131Z,97979.67
2019-02-15T10:37:19.266Z,97977.30
2019-02-15T10:39:47.670Z,97981.31
2019-02-15T10:42:16.082Z,97969.84
2019-02-15T10:44:44.546Z,97967.98
2019-02-15T10:47:14.475Z,97971.94
2019-02-15T10:49:43.157Z,97963.34
2019-02-15T10:52:11.807Z,97958.22
2019-02-15T10:54:40.209Z,97960.16
2019-02-15T10:57:08.615Z,97953.91
2019-02-15T10:59:37.079Z,97951.62
2019-02-15T11:02:05.827Z,97948.97
2019-02-15T11:04:34.237Z,97948.73
2019-02-15T11:07:02.765Z,97944.50
2019-02-15T11:09:31.183Z,97940.19
2019-02-15T11:11:59.654Z,97940.40
2019-02-15T11:14:28.103Z,97938.34
2019-02-15T11:16:56.505Z,97934.21
2019-02-15T11:19:24.914Z,97931.33
2019-02-15T11:21:53.334Z,97932.85
2019-02-15T11:24:21.741Z,97925.12
2019-02-15T11:26:50.140Z,97921.38
2019-02-15T11:29:18.592Z,97913.05
2019-02-15T11:31:46.985Z,97914.69
2019-02-15T11:34:15.411Z,97910.78
2019-02-15T11:36:44.025Z,97912.78
2019-02-15T11:39:12.425Z,97904.08
2019-02-15T11:41:40.831Z,97901.61
2019-02-15T11:44:09.257Z,97907.70
2019-02-15T11:46:37.757Z,97899.55
2019-02-15T11:49:06.163Z,97894.16
2019-02-15T11:51:34.836Z,97890.85
2019-02-15T11:54:03.241Z,97889.11
2019-02-15T11:56:31.637Z,97887.87
2019-02-15T11:59:00.080Z,97889.02
2019-02-15T12:01:28.489Z,97886.27
2019-02-15T12:03:56.882Z,97882.19
2019-02-15T12:06:25.356Z,97884.61
2019-02-15T12:08:53.750Z,97882.89
2019-02-15T12:11:22.196Z,97880.65
2019-02-15T12:13:50.812Z,97875.78
2019-02-15T12:16:19.304Z,97873.83
2019-02-15T12:18:47.686Z,97870.62
2019-02-15T12:21:16.116Z,97872.38
2019-02-15T12:23:44.981Z,97867.28
2019-02-15T12:26:13.403Z,97862.47
2019-02-15T12:28:42.019Z,97860.11
2019-02-15T12:31:10.423Z,97857.26
2019-02-15T12:33:38.826Z,97861.10
2019-02-15T12:36:07.357Z,97853.77
2019-02-15T12:38:35.828Z,97848.80
2019-02-15T12:41:04.237Z,97845.27
2019-02-15T12:43:32.888Z,97845.41
2019-02-15T12:46:01.421Z,97838.52
2019-02-15T12:48:29.817Z,97839.27
2019-02-15T12:50:58.474Z,97838.16
2019-02-15T12:53:26.940Z,97834.92
2019-02-15T12:55:55.338Z,97829.67
2019-02-15T12:58:23.885Z,97837.59
2019-02-15T13:00:52.379Z,97840.40
2019-02-15T13:03:20.790Z,97837.09
2019-02-15T13:05:50.077Z,97828.94
2019-02-15T13:08:18.686Z,97825.64
2019-02-15T13:10:48.973Z,97830.03
2019-02-15T13:13:17.800Z,97833.32
2019-02-15T13:15:46.215Z,97825.17
2019-02-15T13:18:14.587Z,97822.95
2019-02-15T13:20:43.086Z,97821.45
2019-02-15T13:23:11.481Z,97822.49
2019-02-15T13:25:39.876Z,97819.22
2019-02-15T13:28:08.351Z,97817.97
2019-02-15T13:30:36.723Z,97814.75
2019-02-15T13:33:05.119Z,97819.10
2019-02-15T13:35:33.677Z,97810.97
2019-02-15T13:38:02.136Z,97814.14
2019-02-15T13:40:30.533Z,97805.80
2019-02-15T13:42:59.205Z,97805.98
2019-02-15T13:45:29.516Z,97802.02
2019-02-15T13:47:57.728Z,97802.58
2019-02-15T13:50:26.160Z,97803.80
2019-02-15T13:52:54.571Z,97802.67
2019-02-15T13:55:23.336Z,97797.73
2019-02-15T13:57:52.009Z,97799.59
2019-02-15T14:00:20.379Z,97798.05
2019-02-15T14:02:48.779Z,97790.07
2019-02-15T14:05:17.372Z,97793.61
2019-02-15T14:07:45.839Z,97792.96
2019-02-15T14:10:14.873Z,97786.45
2019-02-15T14:12:43.530Z,97793.09
2019-02-15T14:15:12.967Z,97787.11
2019-02-15T14:17:46.304Z,97786.12
2019-02-15T14:20:14.675Z,97777.72
2019-02-15T14:22:43.204Z,97774.57
2019-02-15T14:25:12.445Z,97775.08
2019-02-15T14:27:41.195Z,97772.94
2019-02-15T14:30:13.855Z,97774.27
2019-02-15T14:32:43.210Z,97770.13
2019-02-15T14:35:13.501Z,97766.95
2019-02-15T14:37:43.453Z,97769.97
2019-02-15T14:40:13.358Z,97764.98
2019-02-15T14:42:42.003Z,97763.51
2019-02-15T14:45:11.674Z,97766.48
2019-02-15T14:47:40.161Z,97762.34
2019-02-15T14:50:14.826Z,97763.69
2019-02-15T14:52:43.243Z,97764.77
2019-02-15T14:55:12.127Z,97765.97
2019-02-15T14:57:42.017Z,97764.65
2019-02-15T15:00:12.408Z,97763.98
2019-02-15T15:02:41.067Z,97764.14
2019-02-15T15:05:10.588Z,97758.50
2019-02-15T15:07:39.030Z,97756.14
2019-02-15T15:10:09.281Z,97753.09
2019-02-15T15:12:44.090Z,97754.94
2019-02-15T15:15:16.462Z,97759.68
2019-02-15T15:17:45.375Z,97757.44
2019-02-15T15:20:17.222Z,97751.74
2019-02-15T15:22:45.632Z,97751.53
2019-02-15T15:25:16.770Z,97754.17
2019-02-15T15:27:45.214Z,97745.17
2019-02-15T15:30:15.029Z,97743.03
2019-02-15T15:32:43.568Z,97746.20
2019-02-15T15:35:12.945Z,97737.45
2019-02-15T15:37:41.419Z,97743.67
2019-02-15T15:40:15.046Z,97738.63
2019-02-15T15:42:43.443Z,97741.15
2019-02-15T15:45:12.794Z,97736.73
2019-02-15T15:47:41.301Z,97731.23
2019-02-15T15:50:11.445Z,97736.23
2019-02-15T15:52:40.083Z,97739.15
2019-02-15T15:55:13.443Z,97732.34
2019-02-15T15:57:41.896Z,97737.48
2019-02-15T16:00:14.946Z,97734.52
2019-02-15T16:02:43.947Z,97734.52
2019-02-15T16:05:12.481Z,97737.50
2019-02-15T16:07:43.289Z,97738.19
2019-02-15T16:10:12.678Z,97732.89
2019-02-15T16:12:41.097Z,97738.34
2019-02-15T16:15:11.426Z,97737.05
2019-02-15T16:17:40.074Z,97736.46
2019-02-15T16:20:10.955Z,97733.55
2019-02-15T16:22:39.362Z,97734.38
2019-02-15T16:25:10.590Z,97730.37
2019-02-15T16:27:38.987Z,97735.77
2019-02-15T16:30:10.722Z,97731.84
2019-02-15T16:32:39.141Z,97731.43
2019-02-15T16:35:08.285Z,97738.48
2019-02-15T16:37:36.715Z,97736.28
2019-02-15T16:40:13.694Z,97735.61
2019-02-15T16:42:44.532Z,97742.03
2019-02-15T16:45:14.676Z,97732.72
2019-02-15T16:47:43.345Z,97735.02
2019-02-15T16:50:12.377Z,97741.44
2019-02-15T16:52:40.944Z,97743.39
2019-02-15T16:55:12.678Z,97738.73
2019-02-15T16:57:40.434Z,97742.95
2019-02-15T17:00:13.550Z,97739.78
2019-02-15T17:02:42.047Z,97743.16
2019-02-15T17:05:10.787Z,97739.33
2019-02-15T17:07:39.186Z,97738.63
2019-02-15T17:10:09.632Z,97737.93
2019-02-15T17:12:38.133Z,97741.55
2019-02-15T17:15:14.542Z,97736.30
2019-02-15T17:17:43.002Z,97740.03
2019-02-15T17:20:11.647Z,97737.63
2019-02-15T17:22:40.162Z,97736.56
2019-02-15T17:25:14.501Z,97737.52
2019-02-15T17:27:42.983Z,97743.24
2019-02-15T17:30:12.167Z,97738.08
2019-02-15T17:32:40.652Z,97732.80
2019-02-15T17:35:12.517Z,97732.34
2019-02-15T17:37:41.124Z,97734.49
2019-02-15T17:40:14.631Z,97731.02
2019-02-15T17:42:43.030Z,97729.09
2019-02-15T17:45:12.874Z,97731.13
2019-02-15T17:47:41.339Z,97727.53
2019-02-15T17:50:11.070Z,97723.69
2019-02-15T17:52:39.586Z,97728.12
2019-02-15T17:55:09.819Z,97721.89
2019-02-15T17:57:38.558Z,97719.86
2019-02-15T18:00:10.361Z,97721.39
2019-02-15T18:02:38.793Z,97720.89
2019-02-15T18:05:10.570Z,97721.85
2019-02-15T18:07:39.167Z,97720.52
2019-02-15T18:10:07.632Z,97719.30
2019-02-15T18:12:36.320Z,97722.63
2019-02-15T18:15:05.765Z,97729.45
2019-02-15T18:17:34.175Z,97712.41
2019-02-15T18:20:02.638Z,97718.17
2019-02-15T18:22:31.061Z,97720.40
2019-02-15T18:24:59.460Z,97714.89
2019-02-15T18:27:27.857Z,97717.64
2019-02-15T18:29:56.631Z,97718.71
2019-02-15T18:32:25.024Z,97714.97
2019-02-15T18:34:53.438Z,97714.98
2019-02-15T18:37:21.968Z,97715.68
2019-02-15T18:39:50.354Z,97709.45
2019-02-15T18:42:18.784Z,97702.14
2019-02-15T18:44:47.207Z,97703.11
2019-02-15T18:47:15.605Z,97699.62
2019-02-15T18:49:44.095Z,97698.89
2019-02-15T18:52:12.756Z,97700.80
2019-02-15T18:54:41.158Z,97693.15
2019-02-15T18:57:09.555Z,97696.48
2019-02-15T18:59:37.975Z,97701.84
2019-02-15T19:02:06.441Z,97697.28
2019-02-15T19:04:34.842Z,97700.50
2019-02-15T19:07:03.632Z,97703.34
2019-02-15T19:09:32.028Z,97698.91
2019-02-15T19:12:00.505Z,97702.72
2019-02-15T19:14:28.932Z,97700.54
2019-02-15T19:16:57.331Z,97691.47
2019-02-15T19:19:29.024Z,97690.16
2019-02-15T19:21:55.919Z,97689.88
2019-02-15T19:24:24.342Z,97683.89
2019-02-15T19:26:52.802Z,97685.55
2019-02-15T19:29:21.232Z,97681.09
2019-02-15T19:31:49.629Z,97688.11
2019-02-15T19:34:18.089Z,97683.30
2019-02-15T19:36:46.516Z,97685.30
2019-02-15T19:39:14.914Z,97682.28
2019-02-15T19:41:43.317Z,97682.48
2019-02-15T19:44:11.736Z,97681.66
2019-02-15T19:46:40.118Z,97682.24
2019-02-15T19:49:08.515Z,97678.61
2019-02-15T19:51:37.265Z,97685.17
2019-02-15T19:54:05.739Z,97682.30
2019-02-15T19:56:34.138Z,97675.10
2019-02-15T19:59:02.746Z,97676.66
2019-02-15T20:01:31.151Z,97681.42
2019-02-15T20:03:59.548Z,97673.16
2019-02-15T20:06:27.998Z,97663.13
2019-02-15T20:08:56.390Z,97667.07
2019-02-15T20:11:24.822Z,97663.34
2019-02-15T20:13:53.350Z,97664.05
2019-02-15T20:16:21.744Z,97661.14
2019-02-15T20:18:50.143Z,97659.10
2019-02-15T20:21:18.567Z,97653.70
2019-02-15T20:23:46.980Z,97659.16
2019-02-15T20:26:15.397Z,97651.95
2019-02-15T20:28:43.824Z,97651.58
2019-02-15T20:31:12.222Z,97639.61
2019-02-15T20:33:40.618Z,97638.83
2019-02-15T20:36:09.061Z,97644.86
2019-02-15T20:38:37.468Z,97645.58
2019-02-15T20:41:05.884Z,97649.23
2019-02-15T20:43:34.493Z,97645.52
2019-02-15T20:46:02.898Z,97649.56
2019-02-15T20:48:31.360Z,97643.09
2019-02-15T20:50:59.781Z,97636.63
2019-02-15T20:53:28.171Z,97631.77
2019-02-15T20:55:56.562Z,97626.23
2019-02-15T20:58:25.181Z,97630.40
2019-02-15T21:00:53.649Z,97625.00
2019-02-15T21:03:22.056Z,97614.11
2019-02-15T21:05:50.612Z,97619.02
2019-02-15T21:08:19.007Z,97618.73
2019-02-15T21:10:54.576Z,97620.72
2019-02-15T21:13:20.416Z,97614.97
2019-02-15T21:15:48.083Z,97616.95
2019-02-15T21:18:16.575Z,97613.59
2019-02-15T21:20:45.182Z,97614.08
2019-02-15T21:23:13.580Z,97608.19
2019-02-15T21:25:41.978Z,97602.79
2019-02-15T21:28:10.388Z,97609.70
2019-02-15T21:30:38.814Z,97607.55
2019-02-15T21:33:07.274Z,97601.00
2019-02-15T21:35:35.701Z,97603.23
2019-02-15T21:38:04.170Z,97604.05
2019-02-15T21:40:32.592Z,97603.98
2019-02-15T21:43:01.206Z,97613.10
2019-02-15T21:45:29.607Z,97602.30
2019-02-15T21:47:58.006Z,97596.76
2019-02-15T21:50:26.546Z,97597.88
2019-02-15T21:52:54.939Z,97603.38
2019-02-15T21:55:23.338Z,97600.50
2019-02-15T21:58:00.788Z,97599.52
2019-02-15T22:00:24.172Z,97598.55
2019-02-15T22:02:52.568Z,97599.22
2019-02-15T22:05:21.265Z,97599.35
2019-02-15T22:07:49.659Z,97600.09
2019-02-15T22:10:18.062Z,97602.48
2019-02-15T22:12:46.526Z,97596.89
2019-02-15T22:15:16.467Z,97596.16
2019-02-15T22:17:44.860Z,97601.59
2019-02-15T22:20:14.720Z,97603.09
2019-02-15T22:22:43.165Z,97606.93
2019-02-15T22:25:11.671Z,97605.27
2019-02-15T22:27:40.354Z,97597.59
2019-02-15T22:30:14.302Z,97592.83
2019-02-15T22:32:42.883Z,97593.50
2019-02-15T22:35:11.689Z,97593.69
2019-02-15T22:37:40.153Z,97595.22
2019-02-15T22:40:31.293Z,97598.41
2019-02-15T22:43:02.468Z,97598.98
2019-02-15T22:45:30.967Z,97598.34
2019-02-15T22:47:59.468Z,97603.59
2019-02-15T22:50:35.630Z,97597.87
2019-02-15T22:52:57.968Z,97598.53
2019-02-15T22:55:26.574Z,97595.66
2019-02-15T22:57:55.001Z,97599.11
2019-02-15T23:00:40.328Z,97591.81
2019-02-15T23:03:08.782Z,97596.89
2019-02-15T23:05:37.170Z,97592.70
2019-02-15T23:08:05.594Z,97593.88
2019-02-15T23:10:33.986Z,97596.70
2019-02-15T23:13:02.384Z,97591.46
2019-02-15T23:15:30.803Z,97593.14
2019-02-15T23:17:59.202Z,97595.03
2019-02-15T23:20:27.622Z,97586.64
2019-02-15T23:22:56.022Z,97588.72
2019-02-15T23:25:25.106Z,97586.84
2019-02-15T23:27:53.762Z,97585.37
2019-02-15T23:30:22.210Z,97586.98
2019-02-15T23:32:50.600Z,97585.42
2019-02-15T23:35:19.003Z,97582.06
2019-02-15T23:37:47.470Z,97582.50
2019-02-15T23:40:15.868Z,97579.89
2019-02-15T23:42:44.260Z,97578.50
2019-02-15T23:45:13.080Z,97572.61
2019-02-15T23:47:41.526Z,97578.54
2019-02-15T23:50:10.102Z,97580.42
2019-02-15T23:52:38.508Z,97579.29
2019-02-15T23:55:07.079Z,97570.60
2019-02-15T23:57:35.492Z,97568.43
